createdAt,value
2023-03-20T00:02:22.581Z,98865.50
2023-03-20T00:04:49.122Z,98869.00
2023-03-20T00:07:21.787Z,98876.06
2023-03-20T00:09:51.802Z,98872.53
2023-03-20T00:12:28.775Z,98877.84
2023-03-20T00:14:55.606Z,98879.59
2023-03-20T00:17:22.116Z,98879.59
2023-03-20T00:19:48.973Z,98880.47
2023-03-20T00:22:15.483Z,98884.03
2023-03-20T00:24:42.086Z,98882.28
2023-03-20T00:27:13.811Z,98880.50
2023-03-20T00:29:40.537Z,98884.03
2023-03-20T00:32:16.041Z,98875.19
2023-03-20T00:34:48.809Z,98869.88
2023-03-20T00:37:15.437Z,98874.31
2023-03-20T00:39:41.929Z,98873.44
2023-03-20T00:42:20.571Z,98866.38
2023-03-20T00:44:55.698Z,98869.00
2023-03-20T00:47:24.292Z,98867.25
2023-03-20T00:49:52.460Z,98869.91
2023-03-20T00:52:20.670Z,98867.22
2023-03-20T00:54:47.379Z,98871.63
2023-03-20T00:57:26.588Z,98869.88
2023-03-20T01:00:11.849Z,98864.59
2023-03-20T01:02:38.618Z,98861.91
2023-03-20T01:05:06.579Z,98865.47
2023-03-20T01:07:33.822Z,98855.75
2023-03-20T01:10:00.474Z,98857.53
2023-03-20T01:12:27.389Z,98866.34
2023-03-20T01:14:56.733Z,98869.88
2023-03-20T01:17:24.610Z,98869.91
2023-03-20T01:19:51.125Z,98865.50
2023-03-20T01:22:18.253Z,98866.34
2023-03-20T01:24:45.472Z,98865.50
2023-03-20T01:27:17.814Z,98872.56
2023-03-20T01:29:44.957Z,98867.25
2023-03-20T01:32:22.245Z,98869.88
2023-03-20T01:34:48.948Z,98866.38
2023-03-20T01:37:27.180Z,98864.63
2023-03-20T01:39:54.370Z,98863.75
2023-03-20T01:42:20.925Z,98868.16
2023-03-20T01:44:48.486Z,98861.06
2023-03-20T01:47:28.435Z,98872.53
2023-03-20T01:50:19.753Z,98874.31
2023-03-20T01:52:48.838Z,98872.53
2023-03-20T01:55:15.572Z,98876.06
2023-03-20T01:57:42.124Z,98875.19
2023-03-20T02:00:15.560Z,98879.63
2023-03-20T02:02:45.134Z,98877.81
2023-03-20T02:05:14.350Z,98869.91
2023-03-20T02:07:40.927Z,98876.09
2023-03-20T02:10:19.024Z,98876.09
2023-03-20T02:12:47.423Z,98875.19
2023-03-20T02:15:16.966Z,98868.16
2023-03-20T02:17:44.295Z,98875.19
2023-03-20T02:20:25.502Z,98871.66
2023-03-20T02:23:00.765Z,98878.72
2023-03-20T02:25:52.778Z,98887.53
2023-03-20T02:28:33.599Z,98890.19
2023-03-20T02:31:15.453Z,98885.78
2023-03-20T02:33:47.657Z,98890.19
2023-03-20T02:36:32.340Z,98891.06
2023-03-20T02:39:29.579Z,98893.72
2023-03-20T02:41:59.101Z,98899.00
2023-03-20T02:44:40.212Z,98894.63
2023-03-20T02:47:47.844Z,98905.22
2023-03-20T02:50:27.841Z,98918.44
2023-03-20T02:53:12.846Z,98921.09
2023-03-20T02:55:44.027Z,98917.56
2023-03-20T02:58:22.498Z,98926.38
2023-03-20T03:01:03.575Z,98936.03
2023-03-20T03:03:51.416Z,98936.91
2023-03-20T03:06:24.224Z,98940.38
2023-03-20T03:09:00.163Z,98948.31
2023-03-20T03:11:26.717Z,98945.66
2023-03-20T03:13:56.306Z,98950.94
2023-03-20T03:16:27.807Z,98952.72
2023-03-20T03:19:13.175Z,98949.19
2023-03-20T03:21:40.765Z,98949.19
2023-03-20T03:24:39.923Z,98947.44
2023-03-20T03:27:18.733Z,98952.72
2023-03-20T03:29:51.422Z,98948.31
2023-03-20T03:32:33.497Z,98947.44
2023-03-20T03:35:01.601Z,98959.78
2023-03-20T03:37:34.127Z,98958.00
2023-03-20T03:40:08.068Z,98963.28
2023-03-20T03:43:32.196Z,98962.41
2023-03-20T03:46:09.389Z,98957.16
2023-03-20T03:48:43.759Z,98958.88
2023-03-20T03:51:17.870Z,98962.44
2023-03-20T03:53:52.302Z,98965.94
2023-03-20T03:56:24.111Z,98958.88
2023-03-20T03:58:57.813Z,98958.88
2023-03-20T04:01:27.502Z,98952.72
2023-03-20T04:04:00.965Z,98954.50
2023-03-20T04:06:28.448Z,98960.66
2023-03-20T04:08:55.169Z,98958.84
2023-03-20T04:11:24.611Z,98955.34
2023-03-20T04:13:52.359Z,98946.53
2023-03-20T04:16:20.997Z,98950.94
2023-03-20T04:18:48.024Z,98948.28
2023-03-20T04:21:16.120Z,98946.53
2023-03-20T04:23:43.349Z,98939.47
2023-03-20T04:26:09.957Z,98940.34
2023-03-20T04:28:36.832Z,98948.28
2023-03-20T04:31:04.002Z,98947.41
2023-03-20T04:33:30.777Z,98945.59
2023-03-20T04:35:57.638Z,98944.72
2023-03-20T04:38:24.707Z,98947.38
2023-03-20T04:40:51.510Z,98949.13
2023-03-20T04:43:18.272Z,98954.41
2023-03-20T04:45:44.795Z,98952.66
2023-03-20T04:48:11.324Z,98950.88
2023-03-20T04:50:38.070Z,98959.69
2023-03-20T04:53:05.060Z,98956.16
2023-03-20T04:55:31.884Z,98959.66
2023-03-20T04:57:58.525Z,98960.56
2023-03-20T05:00:25.175Z,98961.44
2023-03-20T05:02:51.697Z,98961.44
2023-03-20T05:05:18.148Z,98956.13
2023-03-20T05:07:44.789Z,98963.16
2023-03-20T05:10:14.777Z,98964.09
2023-03-20T05:12:41.358Z,98964.06
2023-03-20T05:15:08.536Z,98959.66
2023-03-20T05:17:35.256Z,98963.13
2023-03-20T05:20:01.847Z,98956.97
2023-03-20T05:22:28.390Z,98959.59
2023-03-20T05:24:54.862Z,98954.31
2023-03-20T05:27:21.308Z,98953.41
2023-03-20T05:29:47.900Z,98947.25
2023-03-20T05:32:15.629Z,98948.09
2023-03-20T05:34:42.117Z,98945.50
2023-03-20T05:37:08.662Z,98949.00
2023-03-20T05:39:35.506Z,98944.63
2023-03-20T05:42:02.022Z,98954.31
2023-03-20T05:44:28.561Z,98950.78
2023-03-20T05:46:55.301Z,98957.78
2023-03-20T05:49:21.817Z,98958.69
2023-03-20T05:51:48.411Z,98957.84
2023-03-20T05:54:16.186Z,98959.59
2023-03-20T05:56:42.682Z,98954.34
2023-03-20T05:59:09.193Z,98953.44
2023-03-20T06:01:35.742Z,98944.69
2023-03-20T06:04:02.412Z,98950.84
2023-03-20T06:06:28.914Z,98955.25
2023-03-20T06:08:55.384Z,98949.97
2023-03-20T06:11:21.819Z,98942.03
2023-03-20T06:13:49.382Z,98943.78
2023-03-20T06:16:15.944Z,98940.31
2023-03-20T06:18:42.455Z,98939.44
2023-03-20T06:21:09.349Z,98947.38
2023-03-20T06:23:36.341Z,98943.84
2023-03-20T06:26:02.951Z,98951.81
2023-03-20T06:28:30.104Z,98942.13
2023-03-20T06:30:57.190Z,98950.94
2023-03-20T06:33:24.837Z,98947.41
2023-03-20T06:35:51.335Z,98960.63
2023-03-20T06:38:17.818Z,98973.84
2023-03-20T06:40:45.222Z,98968.53
2023-03-20T06:43:12.549Z,98968.50
2023-03-20T06:45:39.237Z,98977.31
2023-03-20T06:48:09.444Z,98964.97
2023-03-20T06:50:36.484Z,98957.94
2023-03-20T06:53:03.502Z,98970.25
2023-03-20T06:55:30.270Z,98972.03
2023-03-20T06:57:56.993Z,98975.56
2023-03-20T07:00:23.898Z,98972.03
2023-03-20T07:02:50.434Z,98970.31
2023-03-20T07:05:17.592Z,98974.72
2023-03-20T07:07:44.221Z,98980.00
2023-03-20T07:10:12.423Z,98980.03
2023-03-20T07:12:39.445Z,98970.34
2023-03-20T07:15:09.532Z,98978.31
2023-03-20T07:17:35.995Z,98978.28
2023-03-20T07:20:03.097Z,98978.28
2023-03-20T07:22:31.330Z,98991.50
2023-03-20T07:24:58.252Z,98991.44
2023-03-20T07:27:24.763Z,98996.75
2023-03-20T07:29:51.422Z,98996.75
2023-03-20T07:32:18.100Z,98986.19
2023-03-20T07:34:45.008Z,99002.94
2023-03-20T07:37:11.591Z,98995.00
2023-03-20T07:39:38.101Z,98996.78
2023-03-20T07:42:04.889Z,98998.53
2023-03-20T07:44:31.371Z,99010.88
2023-03-20T07:46:57.986Z,99011.75
2023-03-20T07:49:24.455Z,99010.88
2023-03-20T07:51:51.007Z,99007.34
2023-03-20T07:54:17.942Z,99003.81
2023-03-20T07:56:44.453Z,99005.59
2023-03-20T07:59:12.760Z,99007.34
2023-03-20T08:01:39.590Z,99013.50
2023-03-20T08:04:06.284Z,99010.00
2023-03-20T08:06:32.881Z,99009.13
2023-03-20T08:08:59.558Z,99011.75
2023-03-20T08:11:26.359Z,99006.47
2023-03-20T08:13:52.903Z,99014.41
2023-03-20T08:16:19.778Z,99010.88
2023-03-20T08:18:52.638Z,99010.03
2023-03-20T08:21:19.783Z,99014.41
2023-03-20T08:23:46.222Z,99004.75
2023-03-20T08:26:13.035Z,99010.03
2023-03-20T08:28:47.471Z,99006.47
2023-03-20T08:31:15.679Z,99009.16
2023-03-20T08:33:42.146Z,99000.31
2023-03-20T08:36:09.042Z,99003.81
2023-03-20T08:38:35.959Z,99001.22
2023-03-20T08:41:02.716Z,98994.19
2023-03-20T08:43:29.449Z,98995.06
2023-03-20T08:45:56.127Z,98996.81
2023-03-20T08:48:22.686Z,99003.06
2023-03-20T08:50:49.213Z,99002.16
2023-03-20T08:53:15.736Z,99012.75
2023-03-20T08:55:48.022Z,99010.97
2023-03-20T08:58:14.581Z,99018.91
2023-03-20T09:00:42.063Z,99018.03
2023-03-20T09:03:14.849Z,99023.31
2023-03-20T09:05:44.243Z,99020.69
2023-03-20T09:08:10.905Z,99024.13
2023-03-20T09:10:37.454Z,99025.91
2023-03-20T09:13:15.481Z,99010.03
2023-03-20T09:15:51.413Z,99008.31
2023-03-20T09:18:19.611Z,99010.97
2023-03-20T09:20:47.248Z,99018.03
2023-03-20T09:23:13.786Z,99008.34
2023-03-20T09:25:40.757Z,99007.47
2023-03-20T09:28:07.557Z,99011.91
2023-03-20T09:30:34.612Z,99013.69
2023-03-20T09:33:01.322Z,99018.97
2023-03-20T09:35:27.950Z,99009.31
2023-03-20T09:37:54.453Z,99019.88
2023-03-20T09:40:31.281Z,99023.44
2023-03-20T09:43:10.187Z,99025.19
2023-03-20T09:46:08.442Z,99019.91
2023-03-20T09:48:44.666Z,99027.84
2023-03-20T09:51:35.867Z,99023.41
2023-03-20T09:54:10.884Z,99036.66
2023-03-20T09:56:38.043Z,99031.38
2023-03-20T09:59:06.675Z,99026.97
2023-03-20T10:01:48.352Z,99026.97
2023-03-20T10:04:14.971Z,99023.44
2023-03-20T10:06:41.500Z,99026.94
2023-03-20T10:09:24.801Z,99033.13
2023-03-20T10:12:00.603Z,99033.09
2023-03-20T10:14:45.059Z,99032.22
2023-03-20T10:17:48.785Z,99025.19
2023-03-20T10:20:24.092Z,99023.41
2023-03-20T10:23:00.691Z,99023.44
2023-03-20T10:25:53.921Z,99027.84
2023-03-20T10:28:45.846Z,99022.56
2023-03-20T10:31:31.288Z,99019.00
2023-03-20T10:34:03.509Z,99018.13
2023-03-20T10:36:39.002Z,99019.88
2023-03-20T10:39:37.739Z,99019.00
2023-03-20T10:42:14.680Z,99023.41
2023-03-20T10:44:45.237Z,99014.59
2023-03-20T10:47:17.045Z,99019.84
2023-03-20T10:49:46.187Z,99011.94
2023-03-20T10:52:18.038Z,99018.09
2023-03-20T10:54:47.388Z,99018.13
2023-03-20T10:57:26.317Z,99019.03
2023-03-20T10:59:58.331Z,99021.66
2023-03-20T11:02:30.868Z,99013.72
2023-03-20T11:05:00.609Z,99018.13
2023-03-20T11:07:32.196Z,99020.75
2023-03-20T11:10:04.800Z,99013.72
2023-03-20T11:12:37.456Z,99023.41
2023-03-20T11:15:20.566Z,99019.91
2023-03-20T11:18:01.552Z,99017.25
2023-03-20T11:20:35.690Z,99025.19
2023-03-20T11:23:08.436Z,99019.88
2023-03-20T11:25:38.507Z,99019.91
2023-03-20T11:28:40.656Z,99018.13
2023-03-20T11:31:35.271Z,99014.63
2023-03-20T11:34:04.629Z,99015.50
2023-03-20T11:36:34.595Z,99016.34
2023-03-20T11:39:10.396Z,99013.72
2023-03-20T11:41:49.973Z,99007.56
2023-03-20T11:44:23.892Z,99000.47
2023-03-20T11:46:57.716Z,99007.53
2023-03-20T11:49:27.619Z,98996.06
2023-03-20T11:51:59.730Z,98996.03
2023-03-20T11:54:27.064Z,98993.41
2023-03-20T11:56:58.728Z,98990.75
2023-03-20T11:59:34.319Z,98981.06
2023-03-20T12:02:04.890Z,98988.09
2023-03-20T12:04:43.964Z,98983.69
2023-03-20T12:07:17.933Z,98980.13
2023-03-20T12:10:10.461Z,98973.97
2023-03-20T12:12:46.682Z,98971.34
2023-03-20T12:15:13.127Z,98968.66
2023-03-20T12:17:46.148Z,98970.38
2023-03-20T12:20:37.377Z,98970.38
2023-03-20T12:23:09.924Z,98967.78
2023-03-20T12:25:58.182Z,98958.94
2023-03-20T12:28:40.632Z,98953.69
2023-03-20T12:31:16.253Z,98948.38
2023-03-20T12:34:10.462Z,98951.06
2023-03-20T12:36:47.032Z,98960.75
2023-03-20T12:39:24.151Z,98949.25
2023-03-20T12:41:59.844Z,98958.09
2023-03-20T12:44:48.482Z,98962.47
2023-03-20T12:47:42.763Z,98947.50
2023-03-20T12:50:18.203Z,98951.91
2023-03-20T12:53:23.171Z,98943.03
2023-03-20T12:55:52.244Z,98938.63
2023-03-20T12:58:43.527Z,98945.69
2023-03-20T13:01:47.469Z,98939.53
2023-03-20T13:04:38.747Z,98942.16
2023-03-20T13:07:20.512Z,98932.47
2023-03-20T13:10:12.541Z,98929.81
2023-03-20T13:13:12.962Z,98929.84
2023-03-20T13:16:08.817Z,98926.28
2023-03-20T13:18:53.995Z,98933.28
2023-03-20T13:21:33.032Z,98940.34
2023-03-20T13:24:32.158Z,98934.22
2023-03-20T13:27:01.583Z,98930.66
2023-03-20T13:29:42.007Z,98928.00
2023-03-20T13:32:31.520Z,98935.91
2023-03-20T13:35:25.222Z,98932.34
2023-03-20T13:37:58.929Z,98929.75
2023-03-20T13:40:33.685Z,98927.13
2023-03-20T13:43:30.929Z,98925.34
2023-03-20T13:46:08.730Z,98926.22
2023-03-20T13:48:45.785Z,98927.09
2023-03-20T13:51:15.310Z,98928.84
2023-03-20T13:54:07.009Z,98928.00
2023-03-20T13:56:59.983Z,98924.50
2023-03-20T13:59:51.006Z,98920.97
2023-03-20T14:02:29.355Z,98918.28
2023-03-20T14:05:12.102Z,98914.75
2023-03-20T14:07:44.470Z,98917.41
2023-03-20T14:10:25.996Z,98907.75
2023-03-20T14:13:00.510Z,98904.19
2023-03-20T14:15:31.934Z,98908.63
2023-03-20T14:18:03.237Z,98908.63
2023-03-20T14:20:34.231Z,98894.56
2023-03-20T14:23:01.756Z,98902.50
2023-03-20T14:25:35.064Z,98900.69
2023-03-20T14:28:09.587Z,98893.59
2023-03-20T14:30:36.640Z,98894.47
2023-03-20T14:33:24.174Z,98890.94
2023-03-20T14:36:11.288Z,98901.53
2023-03-20T14:38:57.150Z,98891.78
2023-03-20T14:42:05.409Z,98893.56
2023-03-20T14:44:49.920Z,98892.69
2023-03-20T14:47:34.068Z,98889.16
2023-03-20T14:50:28.025Z,98898.88
2023-03-20T14:53:15.343Z,98890.03
2023-03-20T14:55:51.298Z,98884.75
2023-03-20T14:58:51.265Z,98899.75
2023-03-20T15:01:20.814Z,98889.19
2023-03-20T15:04:04.970Z,98889.19
2023-03-20T15:06:33.344Z,98889.16
2023-03-20T15:09:06.856Z,98883.88
2023-03-20T15:11:34.931Z,98876.81
2023-03-20T15:14:06.454Z,98872.38
2023-03-20T15:16:36.931Z,98880.34
2023-03-20T15:19:18.093Z,98874.13
2023-03-20T15:21:46.072Z,98878.56
2023-03-20T15:24:26.985Z,98881.22
2023-03-20T15:26:57.648Z,98883.88
2023-03-20T15:29:24.779Z,98888.28
2023-03-20T15:32:14.062Z,98881.25
2023-03-20T15:34:42.581Z,98892.72
2023-03-20T15:37:15.389Z,98877.75
2023-03-20T15:39:45.311Z,98882.16
2023-03-20T15:42:17.270Z,98879.50
2023-03-20T15:44:45.202Z,98883.03
2023-03-20T15:47:20.718Z,98882.16
2023-03-20T15:49:57.176Z,98882.16
2023-03-20T15:52:32.099Z,98884.84
2023-03-20T15:55:02.792Z,98881.31
2023-03-20T15:57:38.681Z,98886.63
2023-03-20T16:00:08.244Z,98882.22
2023-03-20T16:02:39.071Z,98881.34
2023-03-20T16:05:12.771Z,98882.25
2023-03-20T16:07:39.265Z,98877.81
2023-03-20T16:10:43.024Z,98876.97
2023-03-20T16:13:19.519Z,98882.28
2023-03-20T16:15:46.485Z,98883.16
2023-03-20T16:18:18.065Z,98885.78
2023-03-20T16:20:48.893Z,98887.56
2023-03-20T16:23:27.346Z,98896.38
2023-03-20T16:25:59.014Z,98890.22
2023-03-20T16:28:27.915Z,98891.97
2023-03-20T16:31:10.453Z,98881.41
2023-03-20T16:33:39.660Z,98900.81
2023-03-20T16:36:07.011Z,98890.22
2023-03-20T16:38:35.939Z,98891.13
2023-03-20T16:41:21.360Z,98892.91
2023-03-20T16:43:51.594Z,98900.81
2023-03-20T16:46:26.512Z,98896.41
2023-03-20T16:48:58.709Z,98895.50
2023-03-20T16:51:30.786Z,98884.06
2023-03-20T16:53:59.443Z,98900.81
2023-03-20T16:56:34.435Z,98900.78
2023-03-20T16:59:17.275Z,98899.91
2023-03-20T17:01:48.171Z,98896.41
2023-03-20T17:04:20.798Z,98893.75
2023-03-20T17:06:50.787Z,98894.63
2023-03-20T17:09:25.892Z,98897.25
2023-03-20T17:12:02.504Z,98901.63
2023-03-20T17:14:29.779Z,98891.94
2023-03-20T17:16:57.776Z,98893.69
2023-03-20T17:19:24.810Z,98894.59
2023-03-20T17:21:51.617Z,98901.66
2023-03-20T17:24:18.496Z,98903.38
2023-03-20T17:26:52.138Z,98906.03
2023-03-20T17:29:18.838Z,98904.28
2023-03-20T17:31:46.080Z,98900.72
2023-03-20T17:34:14.899Z,98899.84
2023-03-20T17:36:41.925Z,98906.88
2023-03-20T17:39:16.931Z,98899.81
2023-03-20T17:41:43.555Z,98903.31
2023-03-20T17:44:10.113Z,98902.44
2023-03-20T17:46:53.858Z,98899.78
2023-03-20T17:49:26.921Z,98909.50
2023-03-20T17:51:54.375Z,98901.53
2023-03-20T17:54:21.421Z,98919.13
2023-03-20T17:56:48.046Z,98918.25
2023-03-20T17:59:14.679Z,98931.47
2023-03-20T18:01:41.784Z,98919.13
2023-03-20T18:04:08.445Z,98929.72
2023-03-20T18:06:34.953Z,98923.53
2023-03-20T18:09:05.959Z,98928.78
2023-03-20T18:11:32.489Z,98929.69
2023-03-20T18:14:01.891Z,98928.81
2023-03-20T18:16:28.489Z,98930.56
2023-03-20T18:18:55.745Z,98935.81
2023-03-20T18:21:22.299Z,98930.53
2023-03-20T18:23:48.926Z,98931.41
2023-03-20T18:26:22.561Z,98928.78
2023-03-20T18:28:50.610Z,98936.69
2023-03-20T18:31:20.583Z,98931.41
2023-03-20T18:33:52.472Z,98931.41
2023-03-20T18:36:21.628Z,98925.25
2023-03-20T18:38:48.817Z,98931.38
2023-03-20T18:41:18.043Z,98930.50
2023-03-20T18:43:46.489Z,98931.38
2023-03-20T18:46:15.321Z,98929.59
2023-03-20T18:48:42.712Z,98925.19
2023-03-20T18:51:09.608Z,98919.91
2023-03-20T18:53:36.429Z,98907.59
2023-03-20T18:56:03.106Z,98903.19
2023-03-20T18:58:31.770Z,98900.56
2023-03-20T19:00:59.743Z,98896.13
2023-03-20T19:03:28.450Z,98902.28
2023-03-20T19:05:57.973Z,98898.75
2023-03-20T19:08:24.824Z,98900.50
2023-03-20T19:10:51.393Z,98898.75
2023-03-20T19:13:20.203Z,98897.00
2023-03-20T19:15:47.034Z,98889.06
2023-03-20T19:18:17.683Z,98893.47
2023-03-20T19:20:48.014Z,98894.34
2023-03-20T19:23:16.568Z,98892.56
2023-03-20T19:25:45.915Z,98903.13
2023-03-20T19:28:21.637Z,98901.34
2023-03-20T19:30:49.051Z,98903.97
2023-03-20T19:33:15.532Z,98906.63
2023-03-20T19:38:29.245Z,98901.41
2023-03-20T19:40:55.898Z,98896.94
2023-03-20T19:43:23.284Z,98895.16
2023-03-20T19:45:59.222Z,98896.06
2023-03-20T19:48:49.556Z,98892.53
2023-03-20T19:51:20.819Z,98903.97
2023-03-20T19:53:48.191Z,98896.06
2023-03-20T19:56:16.832Z,98903.09
2023-03-20T19:58:44.400Z,98899.56
2023-03-20T20:01:16.806Z,98905.72
2023-03-20T20:03:43.892Z,98902.22
2023-03-20T20:06:10.493Z,98911.88
2023-03-20T20:08:49.145Z,98911.00
2023-03-20T20:11:20.550Z,98905.72
2023-03-20T20:14:04.753Z,98910.13
2023-03-20T20:16:32.979Z,98908.38
2023-03-20T20:18:59.492Z,98904.84
2023-03-20T20:22:13.481Z,98907.47
2023-03-20T20:24:12.734Z,98911.88
2023-03-20T20:26:47.884Z,98911.00
2023-03-20T20:29:19.660Z,98910.06
2023-03-20T20:31:46.214Z,98909.19
2023-03-20T20:35:15.192Z,98910.94
2023-03-20T20:39:46.179Z,98908.28
2023-03-20T20:42:12.956Z,98913.59
2023-03-20T20:44:40.863Z,98910.94
2023-03-20T20:47:08.407Z,98909.19
2023-03-20T20:49:35.158Z,98907.41
2023-03-20T20:52:01.927Z,98903.88
2023-03-20T20:54:28.994Z,98910.94
2023-03-20T20:56:56.155Z,98916.16
2023-03-20T20:59:23.350Z,98908.22
2023-03-20T21:01:50.648Z,98917.00
2023-03-20T21:04:17.309Z,98915.19
2023-03-20T21:07:08.099Z,98915.19
2023-03-20T21:09:30.382Z,98916.94
2023-03-20T21:11:56.875Z,98923.97
2023-03-20T21:14:23.436Z,98927.41
2023-03-20T21:16:49.899Z,98918.59
2023-03-20T21:19:16.422Z,98915.03
2023-03-20T21:21:42.908Z,98921.25
2023-03-20T21:24:30.558Z,98916.84
2023-03-20T21:26:59.220Z,98929.16
2023-03-20T21:29:26.828Z,98929.09
2023-03-20T21:31:53.574Z,98921.16
2023-03-20T21:34:20.303Z,98923.81
2023-03-20T21:36:49.198Z,98920.28
2023-03-20T21:39:17.485Z,98925.56
2023-03-20T21:41:45.260Z,98925.63
2023-03-20T21:44:17.217Z,98925.56
2023-03-20T21:56:00.220Z,98929.88
2023-03-20T21:58:44.523Z,98926.34
2023-03-20T22:04:06.184Z,98926.25
2023-03-20T22:10:05.675Z,98923.53
2023-03-20T22:12:28.294Z,98919.97
2023-03-20T22:15:29.046Z,98923.63
2023-03-20T22:23:43.257Z,98927.91
2023-03-20T22:37:37.768Z,98920.06
2023-03-20T22:45:17.888Z,98912.19
2023-03-20T22:47:44.596Z,98916.59
2023-03-20T22:50:11.050Z,98915.72
2023-03-20T22:52:48.713Z,98904.28
2023-03-20T22:55:17.062Z,98908.66
2023-03-20T22:57:56.267Z,98908.66
2023-03-20T23:00:30.535Z,98906.88
2023-03-20T23:03:06.706Z,98905.13
2023-03-20T23:05:40.980Z,98897.31
2023-03-20T23:08:08.985Z,98899.03
2023-03-20T23:10:37.817Z,98896.38
2023-03-20T23:13:04.826Z,98899.00
2023-03-20T23:15:31.683Z,98894.63
2023-03-20T23:17:58.236Z,98895.50
2023-03-20T23:20:25.354Z,98888.41
2023-03-20T23:22:51.863Z,98899.03
2023-03-20T23:25:31.130Z,98891.13
2023-03-20T23:28:05.372Z,98887.59
2023-03-20T23:30:41.963Z,98888.53
2023-03-20T23:33:11.710Z,98877.13
2023-03-20T23:35:38.321Z,98881.53
2023-03-20T23:38:04.819Z,98881.53
2023-03-20T23:40:31.354Z,98877.13
2023-03-20T23:42:57.840Z,98890.31
2023-03-20T23:45:24.444Z,98876.25
2023-03-20T23:47:51.091Z,98878.91
2023-03-20T23:50:28.921Z,98871.91
2023-03-20T23:53:13.226Z,98876.31
2023-03-20T23:55:45.288Z,98882.47
2023-03-20T23:58:13.025Z,98871.03
